createdAt,value
2018-04-22T00:00:53.267Z,100793.73
2018-04-22T00:02:00.502Z,100794.21
2018-04-22T00:03:06.571Z,100790.27
2018-04-22T00:04:13.553Z,100786.32
2018-04-22T00:05:19.819Z,100791.68
2018-04-22T00:06:26.139Z,100789.50
2018-04-22T00:07:33.829Z,100786.77
2018-04-22T00:08:41.689Z,100787.02
2018-04-22T00:09:47.989Z,100787.59
2018-04-22T00:10:53.952Z,100782.97
2018-04-22T00:12:01.194Z,100784.59
2018-04-22T00:13:08.315Z,100782.13
2018-04-22T00:14:14.716Z,100786.97
2018-04-22T00:15:21.386Z,100790.43
2018-04-22T00:16:27.930Z,100779.55
2018-04-22T00:17:36.345Z,100782.20
2018-04-22T00:18:42.649Z,100776.84
2018-04-22T00:19:48.967Z,100778.10
2018-04-22T00:20:55.449Z,100775.30
2018-04-22T00:22:01.765Z,100773.41
2018-04-22T00:23:10.155Z,100771.75
2018-04-22T00:24:17.203Z,100776.18
2018-04-22T00:25:24.486Z,100773.04
2018-04-22T00:26:30.775Z,100767.48
2018-04-22T00:27:37.058Z,100772.91
2018-04-22T00:28:43.321Z,100774.76
2018-04-22T00:29:49.935Z,100770.27
2018-04-22T00:30:56.252Z,100770.36
2018-04-22T00:32:02.561Z,100762.66
2018-04-22T00:33:08.924Z,100764.38
2018-04-22T00:34:15.418Z,100767.86
2018-04-22T00:35:21.687Z,100761.45
2018-04-22T00:36:33.206Z,100762.47
2018-04-22T00:37:39.274Z,100761.66
2018-04-22T00:38:48.424Z,100752.75
2018-04-22T00:39:54.635Z,100755.35
2018-04-22T00:41:00.953Z,100751.68
2018-04-22T00:42:07.271Z,100756.08
2018-04-22T00:43:13.278Z,100756.51
2018-04-22T00:44:19.554Z,100754.92
2018-04-22T00:45:27.084Z,100754.28
2018-04-22T00:46:34.127Z,100747.65
2018-04-22T00:47:40.866Z,100750.37
2018-04-22T00:48:47.418Z,100751.77
2018-04-22T00:49:53.667Z,100751.17
2018-04-22T00:50:59.674Z,100757.89
2018-04-22T00:52:05.521Z,100747.80
2018-04-22T00:53:11.602Z,100750.77
2018-04-22T00:54:24.023Z,100752.03
2018-04-22T00:55:30.243Z,100751.19
2018-04-22T00:56:36.470Z,100752.31
2018-04-22T00:57:42.798Z,100755.48
2018-04-22T00:58:49.678Z,100752.86
2018-04-22T00:59:56.075Z,100756.41
2018-04-22T01:01:05.408Z,100756.06
2018-04-22T01:02:11.841Z,100750.41
2018-04-22T01:03:18.767Z,100758.01
2018-04-22T01:04:25.068Z,100754.12
2018-04-22T01:05:31.243Z,100752.24
2018-04-22T01:06:37.135Z,100751.98
2018-04-22T01:07:43.401Z,100748.98
2018-04-22T01:08:50.479Z,100750.06
2018-04-22T01:09:57.899Z,100748.27
2018-04-22T01:11:04.100Z,100755.34
2018-04-22T01:12:10.133Z,100754.30
2018-04-22T01:13:17.363Z,100753.36
2018-04-22T01:14:23.596Z,100756.27
2018-04-22T01:15:30.803Z,100748.82
2018-04-22T01:16:37.643Z,100748.71
2018-04-22T01:17:43.686Z,100752.16
2018-04-22T01:18:50.112Z,100749.64
2018-04-22T01:19:56.287Z,100753.64
2018-04-22T01:21:02.279Z,100745.42
2018-04-22T01:22:08.280Z,100749.70
2018-04-22T01:23:14.538Z,100749.13
2018-04-22T01:24:20.547Z,100749.62
2018-04-22T01:25:28.878Z,100749.16
2018-04-22T01:26:37.816Z,100746.48
2018-04-22T01:27:44.056Z,100746.81
2018-04-22T01:28:49.984Z,100743.81
2018-04-22T01:29:57.200Z,100742.86
2018-04-22T01:31:03.561Z,100744.68
2018-04-22T01:32:09.814Z,100743.52
2018-04-22T01:33:16.145Z,100741.72
2018-04-22T01:34:22.411Z,100737.25
2018-04-22T01:35:28.963Z,100742.05
2018-04-22T01:36:34.866Z,100732.73
2018-04-22T01:37:41.153Z,100740.71
2018-04-22T01:38:47.412Z,100736.16
2018-04-22T01:39:53.875Z,100745.42
2018-04-22T01:41:02.125Z,100740.53
2018-04-22T01:42:10.342Z,100745.72
2018-04-22T01:43:16.655Z,100743.99
2018-04-22T01:44:22.598Z,100744.83
2018-04-22T01:45:29.233Z,100742.08
2018-04-22T01:46:35.204Z,100743.95
2018-04-22T01:47:42.121Z,100740.79
2018-04-22T01:48:48.411Z,100741.34
2018-04-22T01:49:54.368Z,100739.00
2018-04-22T01:51:00.604Z,100740.55
2018-04-22T01:52:06.885Z,100740.55
2018-04-22T01:53:13.152Z,100737.34
2018-04-22T01:54:20.304Z,100736.31
2018-04-22T01:55:26.691Z,100742.78
2018-04-22T01:56:32.951Z,100736.69
2018-04-22T01:57:40.127Z,100734.98
2018-04-22T01:58:47.264Z,100738.48
2018-04-22T01:59:53.414Z,100733.07
2018-04-22T02:00:59.442Z,100737.19
2018-04-22T02:02:05.757Z,100736.14
2018-04-22T02:03:12.056Z,100732.83
2018-04-22T02:04:18.107Z,100735.20
2018-04-22T02:05:24.313Z,100735.45
2018-04-22T02:06:30.965Z,100730.98
2018-04-22T02:07:36.911Z,100729.47
2018-04-22T02:08:43.235Z,100726.16
2018-04-22T02:09:49.528Z,100732.13
2018-04-22T02:10:55.851Z,100725.77
2018-04-22T02:12:02.083Z,100726.45
2018-04-22T02:13:08.031Z,100729.53
2018-04-22T02:14:14.290Z,100730.52
2018-04-22T02:15:20.363Z,100726.47
2018-04-22T02:16:26.378Z,100722.30
2018-04-22T02:17:32.675Z,100725.95
2018-04-22T02:18:38.715Z,100726.10
2018-04-22T02:19:45.000Z,100721.97
2018-04-22T02:20:50.851Z,100724.67
2018-04-22T02:21:57.099Z,100723.49
2018-04-22T02:23:03.331Z,100723.99
2018-04-22T02:24:09.675Z,100721.32
2018-04-22T02:25:17.328Z,100723.34
2018-04-22T02:26:25.147Z,100723.41
2018-04-22T02:27:31.443Z,100717.86
2018-04-22T02:28:37.652Z,100716.02
2018-04-22T02:29:43.979Z,100718.34
2018-04-22T02:30:50.277Z,100717.98
2018-04-22T02:31:56.458Z,100722.42
2018-04-22T02:33:05.303Z,100718.20
2018-04-22T02:34:11.804Z,100717.55
2018-04-22T02:35:17.774Z,100720.02
2018-04-22T02:36:24.087Z,100716.88
2018-04-22T02:37:34.459Z,100712.59
2018-04-22T02:38:40.734Z,100710.92
2018-04-22T02:39:47.032Z,100715.45
2018-04-22T02:40:53.323Z,100708.69
2018-04-22T02:41:59.831Z,100711.64
2018-04-22T02:43:06.069Z,100715.47
2018-04-22T02:44:14.530Z,100711.05
2018-04-22T02:45:20.932Z,100713.23
2018-04-22T02:46:27.883Z,100713.66
2018-04-22T02:47:36.126Z,100705.62
2018-04-22T02:48:42.246Z,100704.61
2018-04-22T02:49:48.580Z,100705.28
2018-04-22T02:50:54.832Z,100700.47
2018-04-22T02:52:02.756Z,100701.13
2018-04-22T02:53:08.992Z,100704.26
2018-04-22T02:54:15.348Z,100703.40
2018-04-22T02:55:22.161Z,100698.17
2018-04-22T02:56:28.857Z,100689.86
2018-04-22T02:57:35.175Z,100693.23
2018-04-22T02:58:41.483Z,100698.63
2018-04-22T02:59:47.799Z,100691.61
2018-04-22T03:00:54.996Z,100699.25
2018-04-22T03:02:01.238Z,100692.45
2018-04-22T03:03:07.528Z,100696.27
2018-04-22T03:04:16.334Z,100696.73
2018-04-22T03:05:22.839Z,100699.59
2018-04-22T03:06:29.332Z,100697.99
2018-04-22T03:07:35.532Z,100699.80
2018-04-22T03:08:41.792Z,100697.05
2018-04-22T03:09:48.093Z,100694.15
2018-04-22T03:10:55.304Z,100702.80
2018-04-22T03:12:02.275Z,100699.61
2018-04-22T03:13:08.549Z,100698.36
2018-04-22T03:14:14.559Z,100697.66
2018-04-22T03:15:20.856Z,100695.70
2018-04-22T03:16:27.065Z,100696.51
2018-04-22T03:17:33.084Z,100695.24
2018-04-22T03:18:39.427Z,100691.73
2018-04-22T03:19:48.540Z,100687.61
2018-04-22T03:20:57.231Z,100687.66
2018-04-22T03:22:03.599Z,100685.64
2018-04-22T03:23:09.844Z,100688.88
2018-04-22T03:24:16.056Z,100676.52
2018-04-22T03:25:28.158Z,100680.55
2018-04-22T03:26:39.135Z,100678.48
2018-04-22T03:27:45.430Z,100677.80
2018-04-22T03:28:52.645Z,100678.65
2018-04-22T03:29:58.996Z,100676.78
2018-04-22T03:31:04.962Z,100681.41
2018-04-22T03:32:11.186Z,100675.35
2018-04-22T03:33:17.503Z,100679.58
2018-04-22T03:34:23.824Z,100675.64
2018-04-22T03:35:30.159Z,100677.08
2018-04-22T03:36:36.460Z,100673.47
2018-04-22T03:37:42.763Z,100677.64
2018-04-22T03:38:49.979Z,100671.36
2018-04-22T03:39:56.332Z,100671.19
2018-04-22T03:41:02.593Z,100667.87
2018-04-22T03:42:08.800Z,100673.20
2018-04-22T03:43:15.080Z,100670.13
2018-04-22T03:44:21.363Z,100665.77
2018-04-22T03:45:27.685Z,100666.77
2018-04-22T03:46:34.048Z,100662.19
2018-04-22T03:47:40.254Z,100665.89
2018-04-22T03:48:48.228Z,100664.89
2018-04-22T03:49:54.443Z,100667.00
2018-04-22T03:51:03.275Z,100664.84
2018-04-22T03:52:09.533Z,100663.09
2018-04-22T03:53:16.643Z,100667.25
2018-04-22T03:54:22.871Z,100669.27
2018-04-22T03:55:28.888Z,100666.24
2018-04-22T03:56:35.180Z,100673.85
2018-04-22T03:57:40.818Z,100668.92
2018-04-22T03:58:47.964Z,100672.50
2018-04-22T03:59:54.245Z,100666.53
2018-04-22T04:01:01.127Z,100667.94
2018-04-22T04:02:07.342Z,100667.13
2018-04-22T04:03:13.631Z,100672.25
2018-04-22T04:04:19.675Z,100671.16
2018-04-22T04:05:26.445Z,100671.80
2018-04-22T04:06:35.795Z,100671.48
2018-04-22T04:07:44.417Z,100676.61
2018-04-22T04:08:51.204Z,100669.66
2018-04-22T04:09:57.246Z,100672.63
2018-04-22T04:11:03.471Z,100673.27
2018-04-22T04:12:09.791Z,100666.04
2018-04-22T04:13:16.136Z,100668.11
2018-04-22T04:14:22.390Z,100666.35
2018-04-22T04:15:28.651Z,100668.93
2018-04-22T04:16:34.924Z,100666.38
2018-04-22T04:17:41.434Z,100669.27
2018-04-22T04:18:59.457Z,100665.19
2018-04-22T04:20:16.727Z,100664.69
2018-04-22T04:21:33.874Z,100664.91
2018-04-22T04:22:45.457Z,100666.78
2018-04-22T04:25:52.042Z,100657.61
2018-04-22T04:28:42.705Z,100657.42
2018-04-22T04:29:48.885Z,100654.69
2018-04-22T04:30:55.663Z,100662.77
2018-04-22T04:32:02.839Z,100669.47
2018-04-22T04:33:09.095Z,100667.42
2018-04-22T04:34:15.975Z,100664.86
2018-04-22T04:35:22.291Z,100665.09
2018-04-22T04:36:28.513Z,100663.69
2018-04-22T04:37:34.727Z,100664.91
2018-04-22T04:38:41.058Z,100667.55
2018-04-22T04:39:47.357Z,100662.79
2018-04-22T04:40:57.909Z,100665.98
2018-04-22T04:42:04.200Z,100665.16
2018-04-22T04:43:10.504Z,100660.03
2018-04-22T04:44:16.972Z,100657.81
2018-04-22T04:45:23.259Z,100660.83
2018-04-22T04:46:30.156Z,100666.31
2018-04-22T04:47:36.043Z,100664.37
2018-04-22T04:48:43.182Z,100663.69
2018-04-22T04:49:52.056Z,100667.34
2018-04-22T04:50:58.273Z,100667.64
2018-04-22T04:52:04.578Z,100666.17
2018-04-22T04:53:10.584Z,100665.80
2018-04-22T04:54:16.706Z,100667.42
2018-04-22T04:55:23.162Z,100665.81
2018-04-22T04:56:29.270Z,100668.05
2018-04-22T04:57:35.759Z,100663.89
2018-04-22T04:58:42.571Z,100666.09
2018-04-22T04:59:48.639Z,100666.09
2018-04-22T05:00:54.874Z,100672.27
2018-04-22T05:02:01.086Z,100664.02
2018-04-22T05:03:07.394Z,100673.70
2018-04-22T05:04:13.693Z,100674.48
2018-04-22T05:05:19.941Z,100670.63
2018-04-22T05:06:27.259Z,100665.41
2018-04-22T05:07:33.286Z,100664.73
2018-04-22T05:08:39.567Z,100670.84
2018-04-22T05:09:45.861Z,100659.18
2018-04-22T05:10:52.114Z,100666.52
2018-04-22T05:11:58.426Z,100669.00
2018-04-22T05:13:05.117Z,100664.03
2018-04-22T05:14:14.947Z,100670.30
2018-04-22T05:15:21.176Z,100667.95
2018-04-22T05:16:28.455Z,100670.77
2018-04-22T05:17:34.770Z,100670.06
2018-04-22T05:18:40.844Z,100665.96
2018-04-22T05:19:47.111Z,100670.20
2018-04-22T05:20:53.433Z,100671.73
2018-04-22T05:21:59.772Z,100672.89
2018-04-22T05:23:06.019Z,100671.06
2018-04-22T05:24:12.326Z,100670.02
2018-04-22T05:25:18.643Z,100669.86
2018-04-22T05:26:26.067Z,100667.13
2018-04-22T05:27:32.707Z,100670.47
2018-04-22T05:28:39.004Z,100664.14
2018-04-22T05:29:48.066Z,100671.14
2018-04-22T05:30:54.873Z,100672.40
2018-04-22T05:32:01.879Z,100667.09
2018-04-22T05:33:08.092Z,100669.11
2018-04-22T05:34:14.391Z,100666.08
2018-04-22T05:35:20.650Z,100661.88
2018-04-22T05:36:26.910Z,100660.83
2018-04-22T05:37:32.942Z,100658.69
2018-04-22T05:38:39.219Z,100659.09
2018-04-22T05:39:45.491Z,100662.33
2018-04-22T05:40:51.710Z,100657.12
2018-04-22T05:41:58.052Z,100661.15
2018-04-22T05:43:09.841Z,100660.13
2018-04-22T05:44:16.089Z,100659.63
2018-04-22T05:45:24.367Z,100656.80
2018-04-22T05:46:30.587Z,100662.58
2018-04-22T05:47:40.134Z,100658.03
2018-04-22T05:48:46.457Z,100657.05
2018-04-22T05:49:53.002Z,100660.13
2018-04-22T05:50:59.298Z,100654.94
2018-04-22T05:52:05.535Z,100652.77
2018-04-22T05:53:11.783Z,100653.59
2018-04-22T05:54:18.005Z,100648.67
2018-04-22T05:55:24.319Z,100655.00
2018-04-22T05:56:30.532Z,100650.12
2018-04-22T05:57:36.863Z,100652.57
2018-04-22T05:58:43.150Z,100652.52
2018-04-22T05:59:49.463Z,100648.56
2018-04-22T06:00:57.779Z,100652.50
2018-04-22T06:02:05.096Z,100647.05
2018-04-22T06:03:15.161Z,100644.21
2018-04-22T06:04:21.556Z,100647.08
2018-04-22T06:05:28.380Z,100647.56
2018-04-22T06:06:34.628Z,100651.04
2018-04-22T06:07:40.962Z,100649.69
2018-04-22T06:08:48.030Z,100644.27
2018-04-22T06:09:54.279Z,100653.95
2018-04-22T06:11:00.557Z,100656.25
2018-04-22T06:12:08.463Z,100652.62
2018-04-22T06:13:14.750Z,100656.40
2018-04-22T06:14:25.355Z,100648.74
2018-04-22T06:15:32.513Z,100653.15
2018-04-22T06:16:39.056Z,100650.52
2018-04-22T06:17:45.645Z,100645.59
2018-04-22T06:18:52.480Z,100643.19
2018-04-22T06:19:59.919Z,100651.09
2018-04-22T06:21:08.343Z,100641.39
2018-04-22T06:22:15.342Z,100642.80
2018-04-22T06:23:22.022Z,100640.27
2018-04-22T06:24:29.730Z,100637.88
2018-04-22T06:25:36.484Z,100637.09
2018-04-22T06:26:42.750Z,100635.70
2018-04-22T06:27:50.212Z,100631.99
2018-04-22T06:28:56.910Z,100632.80
2018-04-22T06:30:03.203Z,100630.27
2018-04-22T06:31:09.553Z,100633.08
2018-04-22T06:32:15.894Z,100629.14
2018-04-22T06:33:22.307Z,100635.91
2018-04-22T06:34:28.652Z,100626.79
2018-04-22T06:35:38.512Z,100629.18
2018-04-22T06:36:44.857Z,100624.07
2018-04-22T06:37:50.644Z,100624.61
2018-04-22T06:38:56.924Z,100620.21
2018-04-22T06:40:03.489Z,100620.93
2018-04-22T06:41:10.262Z,100619.77
2018-04-22T06:42:16.771Z,100614.53
2018-04-22T06:43:23.101Z,100618.16
2018-04-22T06:44:29.524Z,100623.20
2018-04-22T06:45:36.061Z,100614.62
2018-04-22T06:46:43.069Z,100617.21
2018-04-22T06:47:49.287Z,100607.26
2018-04-22T06:48:55.495Z,100611.22
2018-04-22T06:50:02.174Z,100607.42
2018-04-22T06:51:08.827Z,100609.70
2018-04-22T06:52:15.752Z,100607.14
2018-04-22T06:53:22.616Z,100602.83
2018-04-22T06:54:29.085Z,100598.52
2018-04-22T06:55:40.498Z,100604.55
2018-04-22T06:56:49.258Z,100601.91
2018-04-22T06:57:56.313Z,100601.41
2018-04-22T06:59:02.839Z,100604.42
2018-04-22T07:00:09.069Z,100612.23
2018-04-22T07:01:16.274Z,100606.42
2018-04-22T07:02:23.074Z,100608.34
2018-04-22T07:03:29.720Z,100606.25
2018-04-22T07:04:36.355Z,100606.70
2018-04-22T07:05:42.647Z,100604.78
2018-04-22T07:06:49.163Z,100605.40
2018-04-22T07:07:55.883Z,100607.39
2018-04-22T07:09:02.374Z,100611.13
2018-04-22T07:10:09.739Z,100610.02
2018-04-22T07:11:16.355Z,100613.81
2018-04-22T07:12:23.080Z,100613.78
2018-04-22T07:13:29.593Z,100617.84
2018-04-22T07:14:36.209Z,100614.68
2018-04-22T07:15:42.452Z,100615.61
2018-04-22T07:16:50.048Z,100615.86
2018-04-22T07:17:57.245Z,100614.74
2018-04-22T07:19:03.813Z,100611.18
2018-04-22T07:20:11.355Z,100608.92
2018-04-22T07:21:18.156Z,100610.73
2018-04-22T07:22:24.694Z,100609.81
2018-04-22T07:23:31.694Z,100598.58
2018-04-22T07:24:37.729Z,100601.38
2018-04-22T07:25:44.654Z,100602.72
2018-04-22T07:26:51.186Z,100595.86
2018-04-22T07:27:58.913Z,100597.44
2018-04-22T07:29:06.044Z,100594.41
2018-04-22T07:30:12.782Z,100598.06
2018-04-22T07:31:19.588Z,100596.83
2018-04-22T07:32:26.337Z,100601.53
2018-04-22T07:33:33.339Z,100601.93
2018-04-22T07:34:39.958Z,100597.49
2018-04-22T07:35:46.794Z,100608.97
2018-04-22T07:36:57.879Z,100601.73
2018-04-22T07:38:08.555Z,100606.73
2018-04-22T07:39:15.134Z,100612.70
2018-04-22T07:40:21.691Z,100608.76
2018-04-22T07:41:30.053Z,100605.70
2018-04-22T07:43:56.242Z,100603.84
2018-04-22T07:45:02.571Z,100597.55
2018-04-22T07:46:10.881Z,100603.95
2018-04-22T07:47:17.915Z,100600.23
2018-04-22T07:48:24.431Z,100596.78
2018-04-22T07:49:30.745Z,100595.48
2018-04-22T07:50:38.176Z,100597.88
2018-04-22T07:51:44.417Z,100597.77
2018-04-22T07:52:55.794Z,100592.47
2018-04-22T07:54:02.183Z,100598.11
2018-04-22T07:55:09.596Z,100594.84
2018-04-22T07:56:17.995Z,100595.47
2018-04-22T07:57:24.875Z,100600.55
2018-04-22T07:58:31.395Z,100594.20
2018-04-22T07:59:38.355Z,100589.64
2018-04-22T08:00:45.883Z,100591.32
2018-04-22T08:01:52.978Z,100585.78
2018-04-22T08:03:00.695Z,100581.42
2018-04-22T08:04:07.196Z,100583.17
2018-04-22T08:05:14.003Z,100577.80
2018-04-22T08:06:21.001Z,100579.45
2018-04-22T08:07:28.357Z,100580.14
2018-04-22T08:08:34.776Z,100582.77
2018-04-22T08:09:41.069Z,100579.92
2018-04-22T08:10:48.328Z,100576.64
2018-04-22T08:11:55.828Z,100573.45
2018-04-22T08:13:02.448Z,100580.25
2018-04-22T08:14:10.571Z,100583.02
2018-04-22T08:15:17.126Z,100579.28
2018-04-22T08:16:24.638Z,100580.31
2018-04-22T08:17:30.958Z,100585.91
2018-04-22T08:18:37.904Z,100583.34
2018-04-22T08:19:44.728Z,100586.55
2018-04-22T08:20:51.247Z,100584.10
2018-04-22T08:21:57.998Z,100583.41
2018-04-22T08:23:04.192Z,100584.77
2018-04-22T08:24:10.433Z,100587.52
2018-04-22T08:25:16.735Z,100582.13
2018-04-22T08:26:24.481Z,100586.70
2018-04-22T08:27:31.684Z,100587.39
2018-04-22T08:28:37.939Z,100582.34
2018-04-22T08:29:44.229Z,100584.36
2018-04-22T08:30:50.551Z,100580.81
2018-04-22T08:31:58.666Z,100580.13
2018-04-22T08:33:04.863Z,100580.39
2018-04-22T08:34:13.382Z,100585.58
2018-04-22T08:35:19.951Z,100576.83
2018-04-22T08:36:26.467Z,100572.75
2018-04-22T08:37:32.757Z,100574.47
2018-04-22T08:38:39.047Z,100573.70
2018-04-22T08:39:49.209Z,100570.27
2018-04-22T08:41:00.059Z,100568.77
2018-04-22T08:42:07.907Z,100563.82
2018-04-22T08:43:14.164Z,100559.69
2018-04-22T08:44:20.450Z,100558.75
2018-04-22T08:45:26.735Z,100560.02
2018-04-22T08:46:33.051Z,100556.50
2018-04-22T08:47:40.420Z,100556.98
2018-04-22T08:48:46.638Z,100557.98
2018-04-22T08:49:52.904Z,100554.92
2018-04-22T08:50:59.279Z,100556.86
2018-04-22T08:52:05.568Z,100559.77
2018-04-22T08:53:13.671Z,100556.60
2018-04-22T08:54:19.873Z,100549.05
2018-04-22T08:55:26.307Z,100553.22
2018-04-22T08:56:32.603Z,100552.73
2018-04-22T08:57:43.315Z,100553.23
2018-04-22T08:58:50.208Z,100554.98
2018-04-22T08:59:56.459Z,100550.30
2018-04-22T09:01:02.673Z,100552.84
2018-04-22T09:02:08.930Z,100553.70
2018-04-22T09:03:15.504Z,100545.23
2018-04-22T09:04:22.050Z,100544.40
2018-04-22T09:05:28.319Z,100544.47
2018-04-22T09:06:34.633Z,100545.84
2018-04-22T09:07:40.882Z,100543.02
2018-04-22T09:08:49.540Z,100540.77
2018-04-22T09:09:56.005Z,100540.32
2018-04-22T09:11:02.267Z,100538.73
2018-04-22T09:12:08.585Z,100539.75
2018-04-22T09:13:17.013Z,100542.77
2018-04-22T09:14:23.230Z,100535.78
2018-04-22T09:15:30.513Z,100535.25
2018-04-22T09:16:37.796Z,100530.34
2018-04-22T09:17:44.991Z,100526.68
2018-04-22T09:18:52.262Z,100527.09
2018-04-22T09:19:58.540Z,100530.08
2018-04-22T09:21:05.533Z,100522.63
2018-04-22T09:22:12.619Z,100522.88
2018-04-22T09:23:19.087Z,100525.19
2018-04-22T09:24:26.411Z,100524.08
2018-04-22T09:25:34.794Z,100524.05
2018-04-22T09:26:44.761Z,100521.02
2018-04-22T09:27:51.532Z,100516.23
2018-04-22T09:28:59.303Z,100527.59
2018-04-22T09:30:05.874Z,100521.09
2018-04-22T09:31:12.332Z,100523.86
2018-04-22T09:32:19.302Z,100525.95
2018-04-22T09:33:25.729Z,100519.45
2018-04-22T09:34:32.082Z,100522.18
2018-04-22T09:35:39.275Z,100520.00
2018-04-22T09:36:47.577Z,100521.27
2018-04-22T09:37:55.120Z,100518.66
2018-04-22T09:39:01.713Z,100514.70
2018-04-22T09:40:08.718Z,100515.82
2018-04-22T09:41:16.464Z,100514.92
2018-04-22T09:42:24.258Z,100514.23
2018-04-22T09:43:31.440Z,100517.14
2018-04-22T09:44:39.800Z,100517.32
2018-04-22T09:45:47.789Z,100516.13
2018-04-22T09:46:54.733Z,100519.16
2018-04-22T09:48:01.625Z,100515.38
2018-04-22T09:49:07.926Z,100512.66
2018-04-22T09:50:14.834Z,100513.67
2018-04-22T09:51:23.043Z,100508.49
2018-04-22T09:52:29.715Z,100504.94
2018-04-22T09:53:36.940Z,100503.16
2018-04-22T09:54:48.079Z,100498.35
2018-04-22T09:55:55.697Z,100495.94
2018-04-22T09:57:01.975Z,100497.89
2018-04-22T09:58:08.307Z,100493.86
2018-04-22T09:59:14.614Z,100496.11
2018-04-22T10:00:26.973Z,100489.70
2018-04-22T10:01:36.580Z,100483.34
2018-04-22T10:02:49.336Z,100480.54
2018-04-22T10:04:05.426Z,100479.91
2018-04-22T10:05:16.270Z,100484.87
2018-04-22T10:06:22.552Z,100483.52
2018-04-22T10:07:28.886Z,100477.08
2018-04-22T10:08:35.194Z,100480.20
2018-04-22T10:09:41.486Z,100478.73
2018-04-22T10:10:48.465Z,100474.69
2018-04-22T10:11:54.746Z,100474.98
2018-04-22T10:13:01.988Z,100475.83
2018-04-22T10:14:08.302Z,100468.33
2018-04-22T10:15:14.567Z,100471.60
2018-04-22T10:16:21.406Z,100469.23
2018-04-22T10:17:27.743Z,100465.92
2018-04-22T10:18:34.061Z,100466.61
2018-04-22T10:19:40.348Z,100464.36
2018-04-22T10:20:47.893Z,100467.05
2018-04-22T10:21:56.041Z,100463.25
2018-04-22T10:23:02.719Z,100463.09
2018-04-22T10:24:08.987Z,100459.98
2018-04-22T10:25:15.843Z,100457.65
2018-04-22T10:26:22.111Z,100456.59
2018-04-22T10:27:30.892Z,100455.73
2018-04-22T10:28:37.607Z,100450.36
2018-04-22T10:29:44.707Z,100456.70
2018-04-22T10:30:50.989Z,100448.12
2018-04-22T10:31:57.228Z,100452.45
2018-04-22T10:33:03.481Z,100449.83
2018-04-22T10:34:09.787Z,100447.58
2018-04-22T10:35:16.014Z,100444.81
2018-04-22T10:36:25.316Z,100443.09
2018-04-22T10:37:31.550Z,100441.95
2018-04-22T10:38:37.774Z,100444.25
2018-04-22T10:39:44.091Z,100438.41
2018-04-22T10:40:50.391Z,100432.57
2018-04-22T10:41:56.619Z,100430.16
2018-04-22T10:43:02.907Z,100431.02
2018-04-22T10:44:09.149Z,100427.70
2018-04-22T10:45:15.427Z,100428.55
2018-04-22T10:46:22.356Z,100422.52
2018-04-22T10:47:28.273Z,100421.84
2018-04-22T10:48:34.607Z,100422.45
2018-04-22T10:49:42.188Z,100421.13
2018-04-22T10:50:48.467Z,100413.55
2018-04-22T10:51:56.149Z,100413.63
2018-04-22T10:53:03.559Z,100412.97
2018-04-22T10:54:09.964Z,100412.95
2018-04-22T10:55:16.226Z,100402.97
2018-04-22T10:56:22.823Z,100403.41
2018-04-22T10:57:29.207Z,100394.77
2018-04-22T10:58:35.494Z,100394.27
2018-04-22T10:59:41.826Z,100394.82
2018-04-22T11:00:48.088Z,100399.19
2018-04-22T11:01:54.307Z,100396.94
2018-04-22T11:03:00.571Z,100392.85
2018-04-22T11:04:06.771Z,100390.68
2018-04-22T11:05:13.064Z,100392.32
2018-04-22T11:06:19.586Z,100388.85
2018-04-22T11:07:27.642Z,100393.83
2018-04-22T11:08:35.647Z,100390.38
2018-04-22T11:09:42.804Z,100387.11
2018-04-22T11:10:50.045Z,100388.09
2018-04-22T11:11:56.230Z,100391.57
2018-04-22T11:13:02.469Z,100382.97
2018-04-22T11:14:08.405Z,100383.53
2018-04-22T11:15:14.679Z,100379.18
2018-04-22T11:16:20.869Z,100379.73
2018-04-22T11:17:27.194Z,100378.97
2018-04-22T11:18:33.556Z,100379.45
2018-04-22T11:19:39.634Z,100380.30
2018-04-22T11:20:46.644Z,100375.13
2018-04-22T11:21:52.959Z,100374.64
2018-04-22T11:22:59.296Z,100369.95
2018-04-22T11:24:05.951Z,100368.87
2018-04-22T11:25:12.174Z,100375.42
2018-04-22T11:26:18.407Z,100375.38
2018-04-22T11:27:25.468Z,100371.34
2018-04-22T11:28:32.884Z,100367.47
2018-04-22T11:29:39.033Z,100366.39
2018-04-22T11:30:45.289Z,100362.23
2018-04-22T11:31:51.607Z,100366.19
2018-04-22T11:32:57.624Z,100365.70
2018-04-22T11:34:03.757Z,100361.25
2018-04-22T11:35:10.015Z,100360.02
2018-04-22T11:36:16.245Z,100358.16
2018-04-22T11:37:22.578Z,100358.20
2018-04-22T11:38:28.860Z,100354.13
2018-04-22T11:39:35.211Z,100359.28
2018-04-22T11:40:41.487Z,100354.09
2018-04-22T11:41:47.823Z,100359.80
2018-04-22T11:42:53.828Z,100354.97
2018-04-22T11:44:00.756Z,100357.30
2018-04-22T11:45:07.047Z,100356.32
2018-04-22T11:46:13.968Z,100352.97
2018-04-22T11:47:20.390Z,100349.27
2018-04-22T11:48:26.728Z,100351.03
2018-04-22T11:49:33.045Z,100351.77
2018-04-22T11:50:39.023Z,100350.64
2018-04-22T11:51:45.352Z,100346.82
2018-04-22T11:52:51.647Z,100350.00
2018-04-22T11:53:57.721Z,100343.38
2018-04-22T11:55:03.811Z,100346.44
2018-04-22T11:56:10.312Z,100347.09
2018-04-22T11:57:16.877Z,100351.05
2018-04-22T11:58:23.300Z,100343.98
2018-04-22T11:59:31.715Z,100340.47
2018-04-22T12:00:38.710Z,100341.31
2018-04-22T12:01:44.711Z,100339.67
2018-04-22T12:02:50.696Z,100342.47
2018-04-22T12:03:56.359Z,100340.50
2018-04-22T12:05:02.333Z,100335.94
2018-04-22T12:06:08.641Z,100335.93
2018-04-22T12:07:14.638Z,100338.96
2018-04-22T12:08:20.618Z,100338.34
2018-04-22T12:09:26.673Z,100335.45
2018-04-22T12:10:33.398Z,100333.30
2018-04-22T12:11:39.362Z,100330.41
2018-04-22T12:12:45.254Z,100332.47
2018-04-22T12:13:51.308Z,100325.44
2018-04-22T12:14:57.402Z,100321.72
2018-04-22T12:16:04.214Z,100329.72
2018-04-22T12:17:10.306Z,100329.94
2018-04-22T12:18:16.327Z,100329.17
2018-04-22T12:19:22.663Z,100322.86
2018-04-22T12:20:29.393Z,100321.77
2018-04-22T12:21:35.898Z,100321.08
2018-04-22T12:22:41.862Z,100320.48
2018-04-22T12:23:48.195Z,100314.63
2018-04-22T12:24:54.198Z,100314.28
2018-04-22T12:26:00.726Z,100312.35
2018-04-22T12:27:06.703Z,100319.44
2018-04-22T12:28:12.707Z,100317.55
2018-04-22T12:29:18.729Z,100314.28
2018-04-22T12:30:24.761Z,100310.13
2018-04-22T12:31:30.735Z,100307.25
2018-04-22T12:32:37.029Z,100313.73
2018-04-22T12:33:43.028Z,100313.14
2018-04-22T12:34:49.265Z,100312.20
2018-04-22T12:35:55.861Z,100308.94
2018-04-22T12:37:03.815Z,100303.32
2018-04-22T12:38:09.823Z,100306.75
2018-04-22T12:39:15.834Z,100305.75
2018-04-22T12:40:23.592Z,100303.98
2018-04-22T12:41:29.717Z,100307.45
2018-04-22T12:42:35.682Z,100308.82
2018-04-22T12:43:41.701Z,100305.75
2018-04-22T12:44:47.733Z,100303.77
2018-04-22T12:45:53.710Z,100306.11
2018-04-22T12:47:00.011Z,100304.76
2018-04-22T12:48:05.700Z,100300.95